sensor_id;sensor_type;location;lat;lon;timestamp;P1;durP1;ratioP1;P2;durP2;ratioP2
15342;SDS011;7771;48.478;8.936;2023-09-07T00:00:01;9.93;;;5.60;;
15342;SDS011;7771;48.478;8.936;2023-09-07T00:02:28;8.87;;;5.07;;
15342;SDS011;7771;48.478;8.936;2023-09-07T00:04:54;5.60;;;5.07;;
15342;SDS011;7771;48.478;8.936;2023-09-07T00:07:21;7.80;;;5.27;;
15342;SDS011;7771;48.478;8.936;2023-09-07T00:09:49;9.13;;;5.47;;
15342;SDS011;7771;48.478;8.936;2023-09-07T00:12:15;6.07;;;5.47;;
15342;SDS011;7771;48.478;8.936;2023-09-07T00:14:43;6.30;;;5.20;;
15342;SDS011;7771;48.478;8.936;2023-09-07T00:17:09;7.93;;;5.30;;
15342;SDS011;7771;48.478;8.936;2023-09-07T00:19:37;6.22;;;5.37;;
15342;SDS011;7771;48.478;8.936;2023-09-07T00:22:05;5.03;;;4.53;;
15342;SDS011;7771;48.478;8.936;2023-09-07T00:24:31;5.97;;;4.90;;
15342;SDS011;7771;48.478;8.936;2023-09-07T00:26:58;5.87;;;5.27;;
15342;SDS011;7771;48.478;8.936;2023-09-07T00:29:25;5.83;;;5.30;;
15342;SDS011;7771;48.478;8.936;2023-09-07T00:31:52;5.53;;;4.97;;
15342;SDS011;7771;48.478;8.936;2023-09-07T00:34:18;8.93;;;5.40;;
15342;SDS011;7771;48.478;8.936;2023-09-07T00:36:45;6.57;;;5.27;;
15342;SDS011;7771;48.478;8.936;2023-09-07T00:39:12;7.27;;;5.27;;
15342;SDS011;7771;48.478;8.936;2023-09-07T00:41:39;8.33;;;5.87;;
15342;SDS011;7771;48.478;8.936;2023-09-07T00:44:07;8.20;;;5.80;;
15342;SDS011;7771;48.478;8.936;2023-09-07T00:46:34;6.60;;;5.00;;
15342;SDS011;7771;48.478;8.936;2023-09-07T00:49:02;9.50;;;5.90;;
15342;SDS011;7771;48.478;8.936;2023-09-07T00:51:29;8.87;;;5.93;;
15342;SDS011;7771;48.478;8.936;2023-09-07T00:53:55;6.27;;;5.67;;
15342;SDS011;7771;48.478;8.936;2023-09-07T00:56:22;6.77;;;5.10;;
15342;SDS011;7771;48.478;8.936;2023-09-07T00:58:49;6.20;;;5.50;;
15342;SDS011;7771;48.478;8.936;2023-09-07T01:01:15;6.20;;;5.30;;
15342;SDS011;7771;48.478;8.936;2023-09-07T01:03:43;6.90;;;5.50;;
15342;SDS011;7771;48.478;8.936;2023-09-07T01:06:12;6.20;;;5.60;;
15342;SDS011;7771;48.478;8.936;2023-09-07T01:08:41;8.83;;;5.50;;
15342;SDS011;7771;48.478;8.936;2023-09-07T01:11:13;8.20;;;5.53;;
15342;SDS011;7771;48.478;8.936;2023-09-07T01:13:39;7.70;;;6.03;;
15342;SDS011;7771;48.478;8.936;2023-09-07T01:16:06;7.37;;;5.93;;
15342;SDS011;7771;48.478;8.936;2023-09-07T01:18:33;7.27;;;5.60;;
15342;SDS011;7771;48.478;8.936;2023-09-07T01:21:01;8.93;;;6.10;;
15342;SDS011;7771;48.478;8.936;2023-09-07T01:23:28;6.57;;;5.60;;
15342;SDS011;7771;48.478;8.936;2023-09-07T01:25:54;6.33;;;5.50;;
15342;SDS011;7771;48.478;8.936;2023-09-07T01:28:22;6.80;;;6.10;;
15342;SDS011;7771;48.478;8.936;2023-09-07T01:30:51;9.40;;;5.90;;
15342;SDS011;7771;48.478;8.936;2023-09-07T01:33:16;7.73;;;5.93;;
15342;SDS011;7771;48.478;8.936;2023-09-07T01:35:44;7.13;;;5.87;;
15342;SDS011;7771;48.478;8.936;2023-09-07T01:38:12;7.07;;;5.30;;
15342;SDS011;7771;48.478;8.936;2023-09-07T01:40:40;7.73;;;6.30;;
15342;SDS011;7771;48.478;8.936;2023-09-07T01:43:07;7.97;;;6.00;;
15342;SDS011;7771;48.478;8.936;2023-09-07T01:45:33;10.27;;;6.53;;
15342;SDS011;7771;48.478;8.936;2023-09-07T01:48:00;7.70;;;6.30;;
15342;SDS011;7771;48.478;8.936;2023-09-07T01:50:28;7.07;;;5.83;;
15342;SDS011;7771;48.478;8.936;2023-09-07T01:52:55;7.93;;;5.43;;
15342;SDS011;7771;48.478;8.936;2023-09-07T01:55:21;9.27;;;6.20;;
15342;SDS011;7771;48.478;8.936;2023-09-07T01:57:49;6.70;;;6.00;;
15342;SDS011;7771;48.478;8.936;2023-09-07T02:00:15;7.37;;;6.57;;
15342;SDS011;7771;48.478;8.936;2023-09-07T02:02:43;7.10;;;5.80;;
15342;SDS011;7771;48.478;8.936;2023-09-07T02:05:11;8.47;;;5.60;;
15342;SDS011;7771;48.478;8.936;2023-09-07T02:07:37;7.50;;;5.90;;
15342;SDS011;7771;48.478;8.936;2023-09-07T02:10:05;6.77;;;6.10;;
15342;SDS011;7771;48.478;8.936;2023-09-07T02:12:33;7.67;;;6.10;;
15342;SDS011;7771;48.478;8.936;2023-09-07T02:15:01;8.13;;;5.80;;
15342;SDS011;7771;48.478;8.936;2023-09-07T02:17:28;6.73;;;6.00;;
15342;SDS011;7771;48.478;8.936;2023-09-07T02:19:54;8.30;;;5.40;;
15342;SDS011;7771;48.478;8.936;2023-09-07T02:22:21;7.93;;;5.90;;
15342;SDS011;7771;48.478;8.936;2023-09-07T02:24:48;10.53;;;5.93;;
15342;SDS011;7771;48.478;8.936;2023-09-07T02:27:16;9.83;;;6.30;;
15342;SDS011;7771;48.478;8.936;2023-09-07T02:29:42;7.90;;;5.40;;
15342;SDS011;7771;48.478;8.936;2023-09-07T02:32:10;7.27;;;6.00;;
15342;SDS011;7771;48.478;8.936;2023-09-07T02:34:38;9.13;;;5.90;;
15342;SDS011;7771;48.478;8.936;2023-09-07T02:37:04;7.70;;;6.17;;
15342;SDS011;7771;48.478;8.936;2023-09-07T02:39:32;8.00;;;5.50;;
15342;SDS011;7771;48.478;8.936;2023-09-07T02:41:59;9.33;;;6.10;;
15342;SDS011;7771;48.478;8.936;2023-09-07T02:44:27;7.13;;;5.73;;
15342;SDS011;7771;48.478;8.936;2023-09-07T02:46:55;7.13;;;5.87;;
15342;SDS011;7771;48.478;8.936;2023-09-07T02:49:21;7.43;;;5.80;;
15342;SDS011;7771;48.478;8.936;2023-09-07T02:57:19;6.70;;;6.00;;
15342;SDS011;7771;48.478;8.936;2023-09-07T02:59:46;5.97;;;5.30;;
15342;SDS011;7771;48.478;8.936;2023-09-07T03:02:13;7.00;;;5.60;;
15342;SDS011;7771;48.478;8.936;2023-09-07T03:04:39;6.33;;;5.70;;
15342;SDS011;7771;48.478;8.936;2023-09-07T03:07:06;7.93;;;6.13;;
15342;SDS011;7771;48.478;8.936;2023-09-07T03:09:34;6.30;;;5.70;;
15342;SDS011;7771;48.478;8.936;2023-09-07T03:12:02;7.23;;;6.37;;
15342;SDS011;7771;48.478;8.936;2023-09-07T03:14:31;7.60;;;5.90;;
15342;SDS011;7771;48.478;8.936;2023-09-07T03:16:57;8.73;;;5.70;;
15342;SDS011;7771;48.478;8.936;2023-09-07T03:19:26;6.57;;;5.80;;
15342;SDS011;7771;48.478;8.936;2023-09-07T03:21:52;8.63;;;5.97;;
15342;SDS011;7771;48.478;8.936;2023-09-07T03:24:20;8.00;;;5.53;;
15342;SDS011;7771;48.478;8.936;2023-09-07T03:26:47;8.20;;;6.30;;
15342;SDS011;7771;48.478;8.936;2023-09-07T03:29:14;8.47;;;5.43;;
15342;SDS011;7771;48.478;8.936;2023-09-07T03:31:40;6.63;;;5.77;;
15342;SDS011;7771;48.478;8.936;2023-09-07T03:34:09;7.40;;;5.90;;
15342;SDS011;7771;48.478;8.936;2023-09-07T03:36:35;7.27;;;5.80;;
15342;SDS011;7771;48.478;8.936;2023-09-07T03:39:02;7.70;;;5.97;;
15342;SDS011;7771;48.478;8.936;2023-09-07T03:41:28;9.20;;;5.73;;
15342;SDS011;7771;48.478;8.936;2023-09-07T03:43:55;6.13;;;5.27;;
15342;SDS011;7771;48.478;8.936;2023-09-07T03:46:22;8.03;;;5.43;;
15342;SDS011;7771;48.478;8.936;2023-09-07T03:48:49;8.43;;;6.20;;
15342;SDS011;7771;48.478;8.936;2023-09-07T03:51:16;9.30;;;6.30;;
15342;SDS011;7771;48.478;8.936;2023-09-07T03:53:45;8.73;;;6.70;;
15342;SDS011;7771;48.478;8.936;2023-09-07T03:56:12;7.60;;;5.40;;
15342;SDS011;7771;48.478;8.936;2023-09-07T03:58:39;6.87;;;5.70;;
15342;SDS011;7771;48.478;8.936;2023-09-07T04:01:05;5.83;;;4.97;;
15342;SDS011;7771;48.478;8.936;2023-09-07T04:03:33;9.13;;;6.33;;
15342;SDS011;7771;48.478;8.936;2023-09-07T04:06:00;7.30;;;5.83;;
15342;SDS011;7771;48.478;8.936;2023-09-07T04:08:27;7.63;;;6.40;;
15342;SDS011;7771;48.478;8.936;2023-09-07T04:10:55;7.33;;;5.90;;
15342;SDS011;7771;48.478;8.936;2023-09-07T04:13:22;7.03;;;5.80;;
15342;SDS011;7771;48.478;8.936;2023-09-07T04:15:49;6.77;;;5.73;;
15342;SDS011;7771;48.478;8.936;2023-09-07T04:18:17;6.97;;;6.20;;
15342;SDS011;7771;48.478;8.936;2023-09-07T04:20:45;7.07;;;5.90;;
15342;SDS011;7771;48.478;8.936;2023-09-07T04:23:11;6.57;;;5.67;;
15342;SDS011;7771;48.478;8.936;2023-09-07T04:25:39;6.70;;;5.60;;
15342;SDS011;7771;48.478;8.936;2023-09-07T04:28:06;7.70;;;5.97;;
15342;SDS011;7771;48.478;8.936;2023-09-07T04:30:38;6.47;;;5.83;;
15342;SDS011;7771;48.478;8.936;2023-09-07T04:33:03;7.00;;;5.80;;
15342;SDS011;7771;48.478;8.936;2023-09-07T04:35:32;6.43;;;5.73;;
15342;SDS011;7771;48.478;8.936;2023-09-07T04:37:58;8.40;;;6.17;;
15342;SDS011;7771;48.478;8.936;2023-09-07T04:40:26;9.50;;;6.00;;
15342;SDS011;7771;48.478;8.936;2023-09-07T04:42:53;7.70;;;6.47;;
15342;SDS011;7771;48.478;8.936;2023-09-07T04:45:22;8.80;;;6.27;;
15342;SDS011;7771;48.478;8.936;2023-09-07T04:47:49;7.93;;;6.17;;
15342;SDS011;7771;48.478;8.936;2023-09-07T04:50:16;7.27;;;5.90;;
15342;SDS011;7771;48.478;8.936;2023-09-07T04:52:43;7.30;;;5.97;;
15342;SDS011;7771;48.478;8.936;2023-09-07T04:55:10;7.80;;;5.63;;
15342;SDS011;7771;48.478;8.936;2023-09-07T04:57:38;8.87;;;6.03;;
15342;SDS011;7771;48.478;8.936;2023-09-07T05:00:06;6.77;;;6.03;;
15342;SDS011;7771;48.478;8.936;2023-09-07T05:02:34;8.13;;;5.90;;
15342;SDS011;7771;48.478;8.936;2023-09-07T05:05:02;7.83;;;5.63;;
15342;SDS011;7771;48.478;8.936;2023-09-07T05:07:30;7.50;;;5.73;;
15342;SDS011;7771;48.478;8.936;2023-09-07T05:09:57;7.73;;;5.70;;
15342;SDS011;7771;48.478;8.936;2023-09-07T05:12:24;7.00;;;5.87;;
15342;SDS011;7771;48.478;8.936;2023-09-07T05:14:52;8.87;;;6.10;;
15342;SDS011;7771;48.478;8.936;2023-09-07T05:17:19;6.93;;;6.00;;
15342;SDS011;7771;48.478;8.936;2023-09-07T05:19:46;9.07;;;6.63;;
15342;SDS011;7771;48.478;8.936;2023-09-07T05:22:13;9.90;;;6.30;;
15342;SDS011;7771;48.478;8.936;2023-09-07T05:24:40;10.17;;;6.50;;
15342;SDS011;7771;48.478;8.936;2023-09-07T05:27:09;18.30;;;12.97;;
15342;SDS011;7771;48.478;8.936;2023-09-07T05:29:35;21.27;;;16.27;;
15342;SDS011;7771;48.478;8.936;2023-09-07T05:32:04;25.67;;;17.17;;
15342;SDS011;7771;48.478;8.936;2023-09-07T05:34:31;12.43;;;10.13;;
15342;SDS011;7771;48.478;8.936;2023-09-07T05:36:58;9.33;;;7.30;;
15342;SDS011;7771;48.478;8.936;2023-09-07T05:39:25;7.67;;;6.47;;
15342;SDS011;7771;48.478;8.936;2023-09-07T05:41:52;8.50;;;6.37;;
15342;SDS011;7771;48.478;8.936;2023-09-07T05:44:19;9.73;;;6.97;;
15342;SDS011;7771;48.478;8.936;2023-09-07T05:46:47;6.87;;;6.17;;
15342;SDS011;7771;48.478;8.936;2023-09-07T05:49:14;9.13;;;6.27;;
15342;SDS011;7771;48.478;8.936;2023-09-07T05:51:41;7.43;;;6.37;;
15342;SDS011;7771;48.478;8.936;2023-09-07T05:54:08;7.27;;;6.33;;
15342;SDS011;7771;48.478;8.936;2023-09-07T05:56:35;7.90;;;6.67;;
15342;SDS011;7771;48.478;8.936;2023-09-07T05:59:02;8.83;;;7.03;;
15342;SDS011;7771;48.478;8.936;2023-09-07T06:01:29;8.63;;;7.23;;
15342;SDS011;7771;48.478;8.936;2023-09-07T06:03:58;8.87;;;7.20;;
15342;SDS011;7771;48.478;8.936;2023-09-07T06:06:26;8.80;;;6.40;;
15342;SDS011;7771;48.478;8.936;2023-09-07T06:08:53;11.17;;;7.47;;
15342;SDS011;7771;48.478;8.936;2023-09-07T06:11:20;8.77;;;7.20;;
15342;SDS011;7771;48.478;8.936;2023-09-07T06:13:48;20.60;;;14.57;;
15342;SDS011;7771;48.478;8.936;2023-09-07T06:16:14;29.47;;;17.20;;
15342;SDS011;7771;48.478;8.936;2023-09-07T06:18:42;27.43;;;17.93;;
15342;SDS011;7771;48.478;8.936;2023-09-07T06:21:10;30.67;;;17.73;;
15342;SDS011;7771;48.478;8.936;2023-09-07T06:23:36;29.37;;;17.47;;
15342;SDS011;7771;48.478;8.936;2023-09-07T06:26:03;28.53;;;17.97;;
15342;SDS011;7771;48.478;8.936;2023-09-07T06:28:30;31.10;;;18.30;;
15342;SDS011;7771;48.478;8.936;2023-09-07T06:30:57;32.60;;;18.80;;
15342;SDS011;7771;48.478;8.936;2023-09-07T06:33:25;30.40;;;19.07;;
15342;SDS011;7771;48.478;8.936;2023-09-07T06:35:52;29.83;;;19.03;;
15342;SDS011;7771;48.478;8.936;2023-09-07T06:38:19;31.10;;;18.97;;
15342;SDS011;7771;48.478;8.936;2023-09-07T06:40:48;30.37;;;19.43;;
15342;SDS011;7771;48.478;8.936;2023-09-07T06:43:15;30.17;;;18.60;;
15342;SDS011;7771;48.478;8.936;2023-09-07T06:45:43;28.77;;;17.83;;
15342;SDS011;7771;48.478;8.936;2023-09-07T06:48:09;26.20;;;17.27;;
15342;SDS011;7771;48.478;8.936;2023-09-07T06:50:38;24.37;;;16.40;;
15342;SDS011;7771;48.478;8.936;2023-09-07T06:53:05;27.33;;;16.63;;
15342;SDS011;7771;48.478;8.936;2023-09-07T06:55:31;21.03;;;14.60;;
15342;SDS011;7771;48.478;8.936;2023-09-07T06:57:59;25.90;;;15.87;;
15342;SDS011;7771;48.478;8.936;2023-09-07T07:00:25;28.27;;;16.73;;
15342;SDS011;7771;48.478;8.936;2023-09-07T07:02:53;27.40;;;17.60;;
15342;SDS011;7771;48.478;8.936;2023-09-07T07:05:20;28.97;;;18.10;;
15342;SDS011;7771;48.478;8.936;2023-09-07T07:07:48;22.33;;;14.13;;
15342;SDS011;7771;48.478;8.936;2023-09-07T07:10:15;24.50;;;15.00;;
15342;SDS011;7771;48.478;8.936;2023-09-07T07:12:44;24.55;;;15.55;;
15342;SDS011;7771;48.478;8.936;2023-09-07T07:15:10;29.42;;;18.12;;
15342;SDS011;7771;48.478;8.936;2023-09-07T07:17:38;26.73;;;16.08;;
15342;SDS011;7771;48.478;8.936;2023-09-07T07:20:06;33.03;;;15.93;;
15342;SDS011;7771;48.478;8.936;2023-09-07T07:22:35;11.20;;;7.55;;
15342;SDS011;7771;48.478;8.936;2023-09-07T07:25:02;8.13;;;6.43;;
15342;SDS011;7771;48.478;8.936;2023-09-07T07:27:31;7.55;;;5.87;;
15342;SDS011;7771;48.478;8.936;2023-09-07T07:29:58;11.65;;;7.10;;
15342;SDS011;7771;48.478;8.936;2023-09-07T07:32:25;8.38;;;6.82;;
15342;SDS011;7771;48.478;8.936;2023-09-07T07:34:53;8.45;;;6.20;;
15342;SDS011;7771;48.478;8.936;2023-09-07T07:37:21;6.55;;;5.90;;
15342;SDS011;7771;48.478;8.936;2023-09-07T07:39:49;7.12;;;5.18;;
15342;SDS011;7771;48.478;8.936;2023-09-07T07:42:16;5.05;;;4.47;;
15342;SDS011;7771;48.478;8.936;2023-09-07T07:44:43;5.55;;;4.50;;
15342;SDS011;7771;48.478;8.936;2023-09-07T07:47:10;9.90;;;5.68;;
15342;SDS011;7771;48.478;8.936;2023-09-07T07:49:39;14.10;;;8.65;;
15342;SDS011;7771;48.478;8.936;2023-09-07T07:52:05;12.95;;;8.02;;
15342;SDS011;7771;48.478;8.936;2023-09-07T07:54:33;7.40;;;6.65;;
15342;SDS011;7771;48.478;8.936;2023-09-07T07:56:59;11.55;;;8.65;;
15342;SDS011;7771;48.478;8.936;2023-09-07T07:59:27;7.62;;;6.93;;
15342;SDS011;7771;48.478;8.936;2023-09-07T08:01:54;7.95;;;7.15;;
15342;SDS011;7771;48.478;8.936;2023-09-07T08:04:22;15.00;;;8.30;;
15342;SDS011;7771;48.478;8.936;2023-09-07T08:06:49;14.60;;;8.35;;
15342;SDS011;7771;48.478;8.936;2023-09-07T08:09:17;12.90;;;7.80;;
15342;SDS011;7771;48.478;8.936;2023-09-07T08:11:43;10.70;;;8.02;;
15342;SDS011;7771;48.478;8.936;2023-09-07T08:14:11;10.07;;;7.80;;
15342;SDS011;7771;48.478;8.936;2023-09-07T08:16:37;10.55;;;8.38;;
15342;SDS011;7771;48.478;8.936;2023-09-07T08:19:05;9.80;;;7.95;;
15342;SDS011;7771;48.478;8.936;2023-09-07T08:21:31;10.68;;;8.15;;
15342;SDS011;7771;48.478;8.936;2023-09-07T08:23:58;10.32;;;7.68;;
15342;SDS011;7771;48.478;8.936;2023-09-07T08:26:25;11.23;;;8.55;;
15342;SDS011;7771;48.478;8.936;2023-09-07T08:28:52;9.57;;;8.15;;
15342;SDS011;7771;48.478;8.936;2023-09-07T08:31:19;12.98;;;9.80;;
15342;SDS011;7771;48.478;8.936;2023-09-07T08:33:46;10.27;;;8.30;;
15342;SDS011;7771;48.478;8.936;2023-09-07T08:36:13;14.27;;;8.13;;
15342;SDS011;7771;48.478;8.936;2023-09-07T08:38:40;9.13;;;7.93;;
15342;SDS011;7771;48.478;8.936;2023-09-07T08:41:06;9.70;;;8.07;;
15342;SDS011;7771;48.478;8.936;2023-09-07T08:43:35;10.73;;;7.30;;
15342;SDS011;7771;48.478;8.936;2023-09-07T08:46:09;10.50;;;7.60;;
15342;SDS011;7771;48.478;8.936;2023-09-07T08:48:49;10.70;;;7.28;;
15342;SDS011;7771;48.478;8.936;2023-09-07T08:51:16;12.18;;;7.55;;
15342;SDS011;7771;48.478;8.936;2023-09-07T08:53:43;10.10;;;6.80;;
15342;SDS011;7771;48.478;8.936;2023-09-07T08:56:10;7.43;;;6.60;;
15342;SDS011;7771;48.478;8.936;2023-09-07T08:58:37;8.57;;;6.32;;
15342;SDS011;7771;48.478;8.936;2023-09-07T09:01:06;9.75;;;6.70;;
15342;SDS011;7771;48.478;8.936;2023-09-07T09:03:35;6.87;;;6.12;;
15342;SDS011;7771;48.478;8.936;2023-09-07T09:06:01;6.35;;;5.62;;
15342;SDS011;7771;48.478;8.936;2023-09-07T09:08:40;7.93;;;6.18;;
15342;SDS011;7771;48.478;8.936;2023-09-07T09:10:59;7.62;;;6.40;;
15342;SDS011;7771;48.478;8.936;2023-09-07T09:13:28;7.62;;;6.18;;
15342;SDS011;7771;48.478;8.936;2023-09-07T09:15:54;8.20;;;6.03;;
15342;SDS011;7771;48.478;8.936;2023-09-07T09:18:21;9.50;;;7.37;;
15342;SDS011;7771;48.478;8.936;2023-09-07T09:20:48;6.05;;;5.47;;
15342;SDS011;7771;48.478;8.936;2023-09-07T09:23:16;6.80;;;5.37;;
15342;SDS011;7771;48.478;8.936;2023-09-07T09:25:44;7.60;;;5.15;;
15342;SDS011;7771;48.478;8.936;2023-09-07T09:28:12;6.55;;;5.07;;
15342;SDS011;7771;48.478;8.936;2023-09-07T09:30:39;5.65;;;4.37;;
15342;SDS011;7771;48.478;8.936;2023-09-07T09:33:06;6.53;;;4.70;;
15342;SDS011;7771;48.478;8.936;2023-09-07T09:35:34;5.50;;;5.00;;
15342;SDS011;7771;48.478;8.936;2023-09-07T09:38:01;5.22;;;4.72;;
15342;SDS011;7771;48.478;8.936;2023-09-07T09:40:31;5.20;;;4.80;;
15342;SDS011;7771;48.478;8.936;2023-09-07T09:42:57;6.22;;;4.93;;
15342;SDS011;7771;48.478;8.936;2023-09-07T09:45:24;7.22;;;4.60;;
15342;SDS011;7771;48.478;8.936;2023-09-07T09:47:51;11.77;;;5.35;;
15342;SDS011;7771;48.478;8.936;2023-09-07T09:50:18;5.93;;;5.03;;
15342;SDS011;7771;48.478;8.936;2023-09-07T09:52:46;6.43;;;5.53;;
15342;SDS011;7771;48.478;8.936;2023-09-07T09:55:12;5.87;;;4.55;;
15342;SDS011;7771;48.478;8.936;2023-09-07T09:57:39;6.00;;;5.10;;
15342;SDS011;7771;48.478;8.936;2023-09-07T10:00:06;4.95;;;4.45;;
15342;SDS011;7771;48.478;8.936;2023-09-07T10:02:49;5.32;;;4.80;;
15342;SDS011;7771;48.478;8.936;2023-09-07T10:05:16;6.35;;;4.80;;
15342;SDS011;7771;48.478;8.936;2023-09-07T10:07:45;5.72;;;4.72;;
15342;SDS011;7771;48.478;8.936;2023-09-07T10:10:13;5.68;;;5.18;;
15342;SDS011;7771;48.478;8.936;2023-09-07T10:12:40;5.45;;;4.95;;
15342;SDS011;7771;48.478;8.936;2023-09-07T10:15:06;10.13;;;6.75;;
15342;SDS011;7771;48.478;8.936;2023-09-07T10:17:35;8.45;;;6.47;;
15342;SDS011;7771;48.478;8.936;2023-09-07T10:20:03;9.70;;;7.57;;
15342;SDS011;7771;48.478;8.936;2023-09-07T10:22:33;6.72;;;6.00;;
15342;SDS011;7771;48.478;8.936;2023-09-07T10:24:59;6.20;;;4.40;;
15342;SDS011;7771;48.478;8.936;2023-09-07T10:27:35;7.78;;;6.62;;
15342;SDS011;7771;48.478;8.936;2023-09-07T10:29:55;5.47;;;5.00;;
15342;SDS011;7771;48.478;8.936;2023-09-07T10:32:22;5.85;;;4.57;;
15342;SDS011;7771;48.478;8.936;2023-09-07T10:34:49;5.22;;;4.53;;
15342;SDS011;7771;48.478;8.936;2023-09-07T10:37:15;5.32;;;4.50;;
15342;SDS011;7771;48.478;8.936;2023-09-07T10:39:42;6.30;;;5.43;;
15342;SDS011;7771;48.478;8.936;2023-09-07T10:42:26;6.65;;;5.20;;
15342;SDS011;7771;48.478;8.936;2023-09-07T10:44:53;5.72;;;4.82;;
15342;SDS011;7771;48.478;8.936;2023-09-07T10:47:20;5.10;;;4.60;;
15342;SDS011;7771;48.478;8.936;2023-09-07T10:49:47;4.97;;;4.57;;
15342;SDS011;7771;48.478;8.936;2023-09-07T10:52:13;5.45;;;4.95;;
15342;SDS011;7771;48.478;8.936;2023-09-07T10:54:40;5.82;;;5.22;;
15342;SDS011;7771;48.478;8.936;2023-09-07T10:57:09;5.82;;;4.97;;
15342;SDS011;7771;48.478;8.936;2023-09-07T10:59:35;5.47;;;4.80;;
15342;SDS011;7771;48.478;8.936;2023-09-07T11:02:04;7.62;;;6.10;;
15342;SDS011;7771;48.478;8.936;2023-09-07T11:04:32;5.30;;;4.80;;
15342;SDS011;7771;48.478;8.936;2023-09-07T11:06:58;5.78;;;5.25;;
15342;SDS011;7771;48.478;8.936;2023-09-07T11:09:25;5.57;;;4.60;;
15342;SDS011;7771;48.478;8.936;2023-09-07T11:11:54;6.72;;;4.85;;
15342;SDS011;7771;48.478;8.936;2023-09-07T11:14:21;5.28;;;4.68;;
15342;SDS011;7771;48.478;8.936;2023-09-07T11:16:47;6.22;;;5.15;;
15342;SDS011;7771;48.478;8.936;2023-09-07T11:19:14;9.55;;;5.15;;
15342;SDS011;7771;48.478;8.936;2023-09-07T11:21:41;6.57;;;5.57;;
15342;SDS011;7771;48.478;8.936;2023-09-07T11:24:08;6.45;;;5.10;;
15342;SDS011;7771;48.478;8.936;2023-09-07T11:29:09;5.53;;;5.03;;
15342;SDS011;7771;48.478;8.936;2023-09-07T11:31:36;7.93;;;5.97;;
15342;SDS011;7771;48.478;8.936;2023-09-07T11:34:08;7.40;;;5.65;;
15342;SDS011;7771;48.478;8.936;2023-09-07T11:36:32;6.15;;;4.57;;
15342;SDS011;7771;48.478;8.936;2023-09-07T11:38:59;7.93;;;5.15;;
15342;SDS011;7771;48.478;8.936;2023-09-07T11:41:26;5.55;;;4.85;;
15342;SDS011;7771;48.478;8.936;2023-09-07T11:43:53;5.05;;;4.55;;
15342;SDS011;7771;48.478;8.936;2023-09-07T11:46:20;6.00;;;5.10;;
15342;SDS011;7771;48.478;8.936;2023-09-07T11:48:47;6.72;;;5.25;;
15342;SDS011;7771;48.478;8.936;2023-09-07T11:51:14;5.00;;;4.60;;
15342;SDS011;7771;48.478;8.936;2023-09-07T11:53:42;6.43;;;4.62;;
15342;SDS011;7771;48.478;8.936;2023-09-07T11:56:09;6.95;;;5.60;;
15342;SDS011;7771;48.478;8.936;2023-09-07T11:58:37;5.10;;;4.60;;
15342;SDS011;7771;48.478;8.936;2023-09-07T12:01:04;5.32;;;4.93;;
15342;SDS011;7771;48.478;8.936;2023-09-07T12:03:31;5.90;;;4.75;;
15342;SDS011;7771;48.478;8.936;2023-09-07T12:05:59;8.52;;;5.65;;
15342;SDS011;7771;48.478;8.936;2023-09-07T12:08:26;5.80;;;5.30;;
15342;SDS011;7771;48.478;8.936;2023-09-07T12:10:52;7.45;;;5.20;;
15342;SDS011;7771;48.478;8.936;2023-09-07T12:13:19;7.18;;;5.90;;
15342;SDS011;7771;48.478;8.936;2023-09-07T12:15:46;6.18;;;4.22;;
15342;SDS011;7771;48.478;8.936;2023-09-07T12:18:13;6.93;;;5.30;;
15342;SDS011;7771;48.478;8.936;2023-09-07T12:20:40;11.55;;;5.45;;
15342;SDS011;7771;48.478;8.936;2023-09-07T12:23:06;5.80;;;5.30;;
15342;SDS011;7771;48.478;8.936;2023-09-07T12:25:33;7.18;;;6.10;;
15342;SDS011;7771;48.478;8.936;2023-09-07T12:28:00;5.93;;;5.10;;
15342;SDS011;7771;48.478;8.936;2023-09-07T12:30:28;10.27;;;8.32;;
15342;SDS011;7771;48.478;8.936;2023-09-07T12:32:54;13.05;;;11.18;;
15342;SDS011;7771;48.478;8.936;2023-09-07T12:35:21;11.57;;;7.18;;
15342;SDS011;7771;48.478;8.936;2023-09-07T12:37:48;13.35;;;9.88;;
15342;SDS011;7771;48.478;8.936;2023-09-07T12:40:15;6.50;;;5.90;;
15342;SDS011;7771;48.478;8.936;2023-09-07T12:42:43;6.03;;;5.53;;
15342;SDS011;7771;48.478;8.936;2023-09-07T12:45:09;10.90;;;7.62;;
15342;SDS011;7771;48.478;8.936;2023-09-07T12:47:37;14.00;;;10.80;;
15342;SDS011;7771;48.478;8.936;2023-09-07T12:50:04;12.52;;;7.40;;
15342;SDS011;7771;48.478;8.936;2023-09-07T12:52:31;5.05;;;4.55;;
15342;SDS011;7771;48.478;8.936;2023-09-07T12:54:57;7.35;;;6.55;;
15342;SDS011;7771;48.478;8.936;2023-09-07T12:57:23;8.20;;;6.22;;
15342;SDS011;7771;48.478;8.936;2023-09-07T12:59:50;6.40;;;5.80;;
15342;SDS011;7771;48.478;8.936;2023-09-07T13:02:17;11.63;;;8.93;;
15342;SDS011;7771;48.478;8.936;2023-09-07T13:04:45;7.15;;;5.65;;
15342;SDS011;7771;48.478;8.936;2023-09-07T13:07:13;9.15;;;7.07;;
15342;SDS011;7771;48.478;8.936;2023-09-07T13:09:42;6.70;;;5.80;;
15342;SDS011;7771;48.478;8.936;2023-09-07T13:12:07;5.03;;;4.57;;
15342;SDS011;7771;48.478;8.936;2023-09-07T13:14:35;7.07;;;4.30;;
15342;SDS011;7771;48.478;8.936;2023-09-07T13:17:01;6.28;;;4.60;;
15342;SDS011;7771;48.478;8.936;2023-09-07T13:19:28;6.32;;;5.07;;
15342;SDS011;7771;48.478;8.936;2023-09-07T13:21:56;5.12;;;4.62;;
15342;SDS011;7771;48.478;8.936;2023-09-07T13:24:23;5.03;;;4.60;;
15342;SDS011;7771;48.478;8.936;2023-09-07T13:26:50;7.43;;;5.53;;
15342;SDS011;7771;48.478;8.936;2023-09-07T13:29:16;5.85;;;4.85;;
15342;SDS011;7771;48.478;8.936;2023-09-07T13:31:44;7.97;;;5.75;;
15342;SDS011;7771;48.478;8.936;2023-09-07T13:34:12;10.23;;;5.43;;
15342;SDS011;7771;48.478;8.936;2023-09-07T13:36:38;5.65;;;4.70;;
15342;SDS011;7771;48.478;8.936;2023-09-07T13:39:07;5.47;;;4.50;;
15342;SDS011;7771;48.478;8.936;2023-09-07T13:41:34;4.95;;;4.45;;
15342;SDS011;7771;48.478;8.936;2023-09-07T13:44:02;5.45;;;4.68;;
15342;SDS011;7771;48.478;8.936;2023-09-07T13:46:28;6.90;;;5.18;;
15342;SDS011;7771;48.478;8.936;2023-09-07T13:48:55;6.78;;;5.32;;
15342;SDS011;7771;48.478;8.936;2023-09-07T13:51:23;8.82;;;5.20;;
15342;SDS011;7771;48.478;8.936;2023-09-07T13:53:50;7.25;;;5.05;;
15342;SDS011;7771;48.478;8.936;2023-09-07T13:56:17;5.20;;;4.68;;
15342;SDS011;7771;48.478;8.936;2023-09-07T13:58:45;7.43;;;4.55;;
15342;SDS011;7771;48.478;8.936;2023-09-07T14:01:13;7.90;;;4.35;;
15342;SDS011;7771;48.478;8.936;2023-09-07T14:03:40;6.97;;;4.55;;
15342;SDS011;7771;48.478;8.936;2023-09-07T14:06:07;6.97;;;4.87;;
15342;SDS011;7771;48.478;8.936;2023-09-07T14:08:35;7.53;;;5.57;;
15342;SDS011;7771;48.478;8.936;2023-09-07T14:11:03;6.55;;;5.32;;
15342;SDS011;7771;48.478;8.936;2023-09-07T14:13:31;9.90;;;6.03;;
15342;SDS011;7771;48.478;8.936;2023-09-07T14:15:59;15.82;;;11.05;;
15342;SDS011;7771;48.478;8.936;2023-09-07T14:18:25;11.48;;;8.32;;
15342;SDS011;7771;48.478;8.936;2023-09-07T14:20:51;8.18;;;5.15;;
15342;SDS011;7771;48.478;8.936;2023-09-07T14:23:18;5.00;;;4.60;;
15342;SDS011;7771;48.478;8.936;2023-09-07T14:25:46;5.20;;;4.80;;
15342;SDS011;7771;48.478;8.936;2023-09-07T14:28:13;10.55;;;6.82;;
15342;SDS011;7771;48.478;8.936;2023-09-07T14:30:39;8.93;;;7.60;;
15342;SDS011;7771;48.478;8.936;2023-09-07T14:33:07;5.37;;;4.85;;
15342;SDS011;7771;48.478;8.936;2023-09-07T14:35:34;5.90;;;5.30;;
15342;SDS011;7771;48.478;8.936;2023-09-07T14:38:01;5.32;;;4.82;;
15342;SDS011;7771;48.478;8.936;2023-09-07T14:40:28;7.30;;;5.50;;
15342;SDS011;7771;48.478;8.936;2023-09-07T14:42:56;7.60;;;6.50;;
15342;SDS011;7771;48.478;8.936;2023-09-07T14:45:24;6.03;;;5.25;;
15342;SDS011;7771;48.478;8.936;2023-09-07T14:47:51;5.03;;;4.55;;
15342;SDS011;7771;48.478;8.936;2023-09-07T14:50:18;8.98;;;4.75;;
15342;SDS011;7771;48.478;8.936;2023-09-07T14:52:46;6.37;;;4.28;;
15342;SDS011;7771;48.478;8.936;2023-09-07T14:55:14;4.90;;;4.22;;
15342;SDS011;7771;48.478;8.936;2023-09-07T14:57:40;14.10;;;5.53;;
15342;SDS011;7771;48.478;8.936;2023-09-07T15:00:09;6.70;;;5.10;;
15342;SDS011;7771;48.478;8.936;2023-09-07T15:02:36;6.10;;;5.20;;
15342;SDS011;7771;48.478;8.936;2023-09-07T15:05:03;7.85;;;4.72;;